Time;durP1;ratioP1;P1;durP2;ratioP2;P2;SDS_P1;SDS_P2;PMS_P1;PMS_P2;Temp;Humidity;BMP_temperature;BMP_pressure;BME280_temperature;BME280_humidity;BME280_pressure;Samples;Min_cycle;Max_cycle;Signal;HPM_P1;HPM_P2
2023/01/13 00:00:01;;;;;;;1.10;0.90;;;;;;;5.50;100.00;100671.25;5031935;28;20032;-70
2023/01/13 00:02:26;;;;;;;1.58;1.00;;;;;;;5.28;100.00;100635.88;5031491;28;20515;-70
2023/01/13 00:04:52;;;;;;;0.90;0.80;;;;;;;5.90;100.00;100690.75;5031629;28;20140;-70
2023/01/13 00:07:17;;;;;;;1.20;0.90;;;;;;;6.07;100.00;100729.47;5030378;28;20117;-71
2023/01/13 00:09:43;;;;;;;1.48;0.93;;;;;;;6.12;100.00;100741.25;5030031;28;20025;-70
2023/01/13 00:12:08;;;;;;;1.00;0.80;;;;;;;5.90;100.00;100733.63;5030211;28;20064;-71
2023/01/13 00:14:35;;;;;;;0.80;0.70;;;;;;;5.70;100.00;100703.28;5030212;28;20443;-71
2023/01/13 00:17:01;;;;;;;6.10;4.00;;;;;;;5.57;100.00;100739.34;5031269;28;20785;-70
2023/01/13 00:19:26;;;;;;;4.88;2.85;;;;;;;5.04;100.00;100614.78;5031293;28;20033;-70
2023/01/13 00:21:51;;;;;;;3.25;2.22;;;;;;;5.32;100.00;100677.06;5030097;28;20518;-70
2023/01/13 00:24:17;;;;;;;3.45;2.22;;;;;;;5.55;100.00;100680.50;5030947;28;20122;-70
2023/01/13 00:26:42;;;;;;;4.95;2.20;;;;;;;5.15;100.00;100659.34;5030977;28;20349;-71
2023/01/13 00:29:08;;;;;;;3.72;2.25;;;;;;;5.51;100.00;100665.34;5031566;28;20462;-72
2023/01/13 00:31:33;;;;;;;3.60;2.50;;;;;;;5.86;100.00;100742.03;5030219;28;20030;-72
2023/01/13 00:34:00;;;;;;;3.35;2.08;;;;;;;5.87;100.00;100736.13;5031455;28;20030;-71
2023/01/13 00:36:25;;;;;;;3.60;2.50;;;;;;;5.70;100.00;100688.16;5031505;28;20030;-72
2023/01/13 00:38:51;;;;;;;3.95;2.33;;;;;;;5.82;100.00;100694.91;5031088;28;20033;-72
2023/01/13 00:41:19;;;;;;;3.20;2.00;;;;;;;5.43;100.00;100684.69;5031460;28;20034;-72
2023/01/13 00:43:46;;;;;;;2.85;2.00;;;;;;;5.54;100.00;100688.06;5031368;28;20068;-73
2023/01/13 00:46:14;;;;;;;2.00;1.30;;;;;;;5.40;100.00;100654.41;5031223;28;20033;-70
2023/01/13 00:48:39;;;;;;;1.52;0.90;;;;;;;5.79;100.00;100743.66;5031063;28;20064;-72
2023/01/13 00:51:07;;;;;;;0.77;0.60;;;;;;;5.65;100.00;100750.31;5031109;28;20057;-72
2023/01/13 00:53:35;;;;;;;0.65;0.60;;;;;;;5.38;100.00;100678.75;5030869;28;20029;-71
2023/01/13 00:56:13;;;;;;;0.98;0.60;;;;;;;5.70;100.00;100707.47;5031036;28;20034;-72
2023/01/13 00:58:39;;;;;;;0.68;0.60;;;;;;;5.89;100.00;100744.56;5031465;28;20485;-73
2023/01/13 01:01:08;;;;;;;1.10;0.50;;;;;;;4.93;100.00;100611.38;5030852;28;20041;-72
2023/01/13 01:03:34;;;;;;;0.60;0.50;;;;;;;5.99;100.00;100746.28;5030496;28;20048;-72
2023/01/13 01:06:13;;;;;;;0.60;0.43;;;;;;;5.55;100.00;100667.06;5029602;28;20030;-71
2023/01/13 01:08:39;;;;;;;0.88;0.50;;;;;;;5.95;100.00;100737.84;5031015;28;20034;-71
2023/01/13 01:11:07;;;;;;;0.65;0.50;;;;;;;5.59;100.00;100661.19;5030913;28;20587;-72
2023/01/13 01:13:33;;;;;;;0.68;0.50;;;;;;;5.93;100.00;100748.78;5031460;28;20114;-71
2023/01/13 01:16:02;;;;;;;1.92;0.90;;;;;;;5.50;100.00;100666.22;5050713;28;20138;-71
2023/01/13 01:18:27;;;;;;;1.75;0.80;;;;;;;5.95;100.00;100739.53;5050645;28;20069;-71
2023/01/13 01:20:52;;;;;;;0.90;0.60;;;;;;;5.96;100.00;100721.03;5050310;28;20077;-71
2023/01/13 01:23:18;;;;;;;1.33;0.40;;;;;;;5.81;100.00;100704.13;5050698;28;20041;-71
2023/01/13 01:25:43;;;;;;;0.88;0.60;;;;;;;6.00;100.00;100737.88;5050736;28;20141;-71
2023/01/13 01:28:09;;;;;;;0.77;0.50;;;;;;;5.77;100.00;100663.75;5049315;28;20029;-70
2023/01/13 01:30:34;;;;;;;0.60;0.50;;;;;;;5.61;100.00;100672.97;5050673;28;20028;-71
2023/01/13 01:33:02;;;;;;;0.73;0.43;;;;;;;5.58;100.00;100667.06;5050051;28;20052;-70
2023/01/13 01:35:27;;;;;;;0.70;0.50;;;;;;;6.01;100.00;100725.25;5050429;28;20082;-70
2023/01/13 01:37:52;;;;;;;0.40;0.35;;;;;;;5.68;100.00;100664.59;5050464;28;20028;-71
2023/01/13 01:40:18;;;;;;;1.02;0.50;;;;;;;6.05;100.00;100718.53;5049760;28;20475;-70
2023/01/13 01:45:30;;;;;;;1.55;0.60;;;;;;;5.24;100.00;100608.13;5050388;28;20048;-71
2023/01/13 01:48:00;;;;;;;1.02;0.70;;;;;;;6.00;100.00;100721.03;5049306;28;20418;-71
2023/01/13 01:50:27;;;;;;;2.75;1.63;;;;;;;5.98;100.00;100716.84;5050550;28;20468;-71
2023/01/13 01:53:00;;;;;;;2.42;1.08;;;;;;;5.67;100.00;100644.38;5049163;28;20036;-72
2023/01/13 01:55:31;;;;;;;2.20;1.40;;;;;;;5.39;100.00;100637.59;5050295;28;20515;-71
2023/01/13 01:58:14;;;;;;;2.88;1.90;;;;;;;5.60;100.00;100646.09;5050165;28;20029;-72
2023/01/13 02:00:39;;;;;;;3.05;2.30;;;;;;;5.76;100.00;100683.13;5050503;28;20540;-71
2023/01/13 02:03:06;;;;;;;3.33;2.20;;;;;;;5.31;100.00;100614.06;5050392;28;20049;-72
2023/01/13 02:05:33;;;;;;;3.72;2.40;;;;;;;5.21;100.00;100601.41;5049936;28;20051;-71
2023/01/13 02:07:59;;;;;;;4.18;2.78;;;;;;;5.20;100.00;100622.41;5050152;28;20036;-71
2023/01/13 02:10:27;;;;;;;4.82;2.83;;;;;;;5.89;100.00;100711.75;5049915;28;20040;-71
2023/01/13 02:13:05;;;;;;;4.88;2.92;;;;;;;5.90;100.00;100714.28;5049879;28;20059;-72
2023/01/13 02:15:40;;;;;;;4.43;2.70;;;;;;;5.98;100.00;100711.78;5052670;28;20043;-72
2023/01/13 02:18:19;;;;;;;6.32;3.83;;;;;;;5.65;100.00;100683.91;5053959;28;20033;-71
2023/01/13 02:21:02;;;;;;;8.45;5.43;;;;;;;5.68;100.00;100721.75;5053337;28;20507;-71
2023/01/13 02:27:15;;;;;;;6.13;4.30;;;;;;;5.84;100.00;100719.31;5053538;28;20051;-72
2023/01/13 02:33:13;;;;;;;4.97;3.90;;;;;;;5.46;100.00;100727.53;5053469;28;20039;-71
2023/01/13 02:35:50;;;;;;;5.05;3.83;;;;;;;4.79;100.00;100592.81;5053025;28;20025;-70
2023/01/13 02:38:21;;;;;;;3.08;2.65;;;;;;;5.16;100.00;100645.06;5053153;28;20025;-71
2023/01/13 02:44:05;;;;;;;4.43;3.58;;;;;;;5.14;100.00;100662.72;5052040;28;20032;-70
2023/01/13 02:44:06;;;;;;;4.90;3.70;;;;;;;5.59;100.00;100699.00;5052887;28;20033;-71
2023/01/13 02:46:58;;;;;;;5.10;3.67;;;;;;;5.89;100.00;100727.75;5052363;28;20033;-70
2023/01/13 02:49:38;;;;;;;5.20;3.75;;;;;;;5.51;100.00;100718.31;5047212;28;20050;-71
2023/01/13 02:52:11;;;;;;;5.28;3.90;;;;;;;5.72;100.00;100734.41;5052762;28;20044;-70
2023/01/13 02:54:43;;;;;;;4.65;4.00;;;;;;;5.53;100.00;100736.81;5052993;28;20063;-70
2023/01/13 02:57:10;;;;;;;5.40;4.20;;;;;;;5.51;100.00;100738.47;5051810;28;20028;-71
2023/01/13 02:59:39;;;;;;;6.97;5.07;;;;;;;4.92;100.00;100655.84;5052491;28;20422;-70
2023/01/13 03:02:08;;;;;;;6.65;4.78;;;;;;;5.32;100.00;100729.16;5052541;28;20547;-70
2023/01/13 03:04:53;;;;;;;5.80;4.38;;;;;;;5.56;100.00;100724.22;5052152;28;20442;-70
2023/01/13 03:07:57;;;;;;;6.50;4.65;;;;;;;5.49;100.00;100719.97;5052770;28;20049;-71
2023/01/13 03:10:37;;;;;;;;;;;;;;;5.43;100.00;100725.03;5053071;28;20564;-71
2023/01/13 03:13:24;;;;;;;7.80;5.68;;;;;;;5.29;100.00;100728.28;5052774;28;19962;-70
2023/01/13 03:16:05;;;;;;;8.32;5.90;;;;;;;5.37;100.00;100732.56;5051119;28;20072;-71
2023/01/13 03:18:36;;;;;;;10.18;6.28;;;;;;;5.50;100.00;100732.63;5052210;28;20057;-71
2023/01/13 03:21:18;;;;;;;9.32;6.68;;;;;;;5.44;100.00;100719.13;5052137;28;20108;-69
2023/01/13 03:24:10;;;;;;;8.95;6.82;;;;;;;5.54;100.00;100708.25;5052162;28;20067;-70
2023/01/13 03:27:09;;;;;;;9.38;7.28;;;;;;;5.38;100.00;100706.50;5052400;28;20450;-71
2023/01/13 03:29:44;;;;;;;8.43;6.60;;;;;;;5.06;100.00;100624.03;5051858;28;20480;-70
2023/01/13 03:32:19;;;;;;;9.30;7.28;;;;;;;5.16;100.00;100666.06;5052564;28;20047;-71
2023/01/13 03:34:52;;;;;;;10.40;7.40;;;;;;;5.04;100.00;100623.19;5052352;28;20033;-72
2023/01/13 03:37:25;;;;;;;10.80;7.68;;;;;;;5.42;100.00;100703.16;5052293;28;20024;-73
2023/01/13 03:39:55;;;;;;;11.50;8.48;;;;;;;5.41;100.00;100701.47;5051964;28;20025;-72
2023/01/13 03:42:23;;;;;;;9.98;7.88;;;;;;;5.11;100.00;100607.25;5052116;28;20092;-72
2023/01/13 03:45:08;;;;;;;10.55;8.30;;;;;;;5.64;100.00;100682.22;5053065;28;20131;-70
2023/01/13 03:47:56;;;;;;;12.75;8.60;;;;;;;5.63;100.00;100688.09;5052445;28;20513;-71
2023/01/13 03:50:30;;;;;;;12.02;9.13;;;;;;;5.48;100.00;100677.97;5052238;28;20025;-73
2023/01/13 03:53:25;;;;;;;12.35;8.85;;;;;;;5.41;100.00;100643.50;5052320;28;20024;-73
2023/01/13 03:55:57;;;;;;;12.02;8.95;;;;;;;5.26;100.00;100617.41;5048026;28;20040;-73
2023/01/13 03:58:26;;;;;;;10.35;9.20;;;;;;;5.66;100.00;100678.88;5052084;28;20025;-73
2023/01/13 04:00:57;;;;;;;14.55;10.10;;;;;;;5.17;100.00;100621.53;5051619;28;20033;-72
2023/01/13 04:03:25;;;;;;;;;;;;;;;5.50;100.00;100678.81;5051889;28;20041;-72
2023/01/13 04:05:57;;;;;;;11.55;9.45;;;;;;;4.98;100.00;100600.47;5050637;28;19923;-72
2023/01/13 04:08:26;;;;;;;12.48;9.68;;;;;;;5.20;100.00;100596.38;5044783;28;20072;-72
2023/01/13 04:11:04;;;;;;;11.52;9.27;;;;;;;5.31;100.00;100616.56;5051565;28;20080;-72
2023/01/13 04:13:36;;;;;;;11.55;9.27;;;;;;;5.68;100.00;100673.84;5050979;28;20036;-73
2023/01/13 04:16:03;;;;;;;11.93;9.75;;;;;;;5.24;100.00;100614.03;5051931;28;20033;-73
2023/01/13 04:18:30;;;;;;;10.95;9.45;;;;;;;5.71;100.00;100687.28;5051752;28;20096;-73
2023/01/13 04:20:58;;;;;;;12.05;9.60;;;;;;;5.71;100.00;100673.81;5052080;28;20061;-73
2023/01/13 04:23:24;;;;;;;13.40;10.90;;;;;;;5.43;100.00;100609.06;5050671;28;20518;-73
2023/01/13 04:25:50;;;;;;;14.00;11.85;;;;;;;5.71;100.00;100641.03;5051298;28;20035;-72
2023/01/13 04:28:16;;;;;;;16.70;12.43;;;;;;;5.36;100.00;100622.47;5051312;28;20030;-73
2023/01/13 04:30:43;;;;;;;14.68;11.70;;;;;;;5.76;100.00;100670.50;5051693;28;20410;-70
2023/01/13 04:33:09;;;;;;;11.20;8.82;;;;;;;5.49;100.00;100639.28;5050434;28;20033;-72
2023/01/13 04:35:36;;;;;;;11.23;8.88;;;;;;;5.67;100.00;100651.97;5051816;28;20043;-74
2023/01/13 04:38:04;;;;;;;9.90;7.95;;;;;;;5.51;100.00;100598.13;5052217;28;20041;-73
2023/01/13 04:40:30;;;;;;;8.98;7.55;;;;;;;5.41;100.00;100600.63;5051912;28;20052;-71
2023/01/13 04:42:55;;;;;;;11.43;8.15;;;;;;;5.22;100.00;100602.25;5050915;28;20527;-72
2023/01/13 04:45:21;;;;;;;12.50;10.00;;;;;;;5.52;100.00;100621.66;5051015;28;20074;-71
2023/01/13 04:47:47;;;;;;;16.85;12.75;;;;;;;4.39;100.00;100444.13;5051078;28;20035;-72
2023/01/13 04:50:12;;;;;;;19.58;13.70;;;;;;;5.12;100.00;100600.53;5051288;28;20036;-72
2023/01/13 04:52:38;;;;;;;15.57;12.07;;;;;;;5.31;100.00;100644.28;5049854;28;20033;-70
2023/01/13 04:55:04;;;;;;;13.93;11.43;;;;;;;5.34;100.00;100606.50;5050514;28;20036;-72
2023/01/13 04:57:29;;;;;;;12.00;10.35;;;;;;;5.88;100.00;100678.09;5050703;28;20968;-72
2023/01/13 04:59:55;;;;;;;13.90;11.52;;;;;;;5.60;100.00;100635.16;5050045;28;20082;-72
2023/01/13 05:02:20;;;;;;;17.15;12.75;;;;;;;5.65;100.00;100661.19;5050874;28;20095;-70
2023/01/13 05:04:46;;;;;;;18.08;13.10;;;;;;;5.81;100.00;100695.72;5051203;28;20079;-72
2023/01/13 05:07:13;;;;;;;18.50;13.43;;;;;;;5.26;100.00;100614.88;5050521;28;20488;-71
2023/01/13 05:09:38;;;;;;;22.60;17.83;;;;;;;5.81;100.00;100683.97;5050787;28;20036;-72
2023/01/13 05:17:32;;;;;;;25.92;20.23;;;;;;;5.64;100.00;100664.56;5107319;28;20081;-71
2023/01/13 05:19:57;;;;;;;19.50;16.17;;;;;;;5.23;100.00;100612.31;5090129;28;20098;-71
2023/01/13 05:25:20;;;;;;;34.72;25.35;;;;;;;5.81;100.00;100691.53;5109311;28;20102;-75
2023/01/13 05:27:49;;;;;;;17.75;13.18;;;;;;;5.73;100.00;100695.69;5109284;28;20081;-73
2023/01/13 05:30:16;;;;;;;14.45;11.13;;;;;;;5.89;100.00;100694.09;5109758;28;20031;-74
2023/01/13 05:32:41;;;;;;;15.52;11.65;;;;;;;5.30;100.00;100600.59;5109586;28;20039;-71
2023/01/13 05:35:07;;;;;;;13.80;10.73;;;;;;;5.63;100.00;100660.34;5109292;28;20034;-73
2023/01/13 05:37:32;;;;;;;15.13;11.57;;;;;;;5.58;100.00;100650.28;5110145;28;20061;-72
2023/01/13 05:45:26;;;;;;;18.70;14.95;;;;;;;5.72;100.00;100667.97;5050555;28;20451;-74
2023/01/13 05:47:51;;;;;;;29.77;21.20;;;;;;;6.00;100.00;100713.47;5051480;28;20025;-71
2023/01/13 05:50:17;;;;;;;26.42;10.02;;;;;;;8.26;100.00;100669.06;5054126;28;20123;-71
2023/01/13 05:52:43;;;;;;;28.35;23.23;;;;;;;6.06;100.00;100652.09;5053866;28;20032;-71
2023/01/13 05:55:10;;;;;;;29.52;22.60;;;;;;;5.62;100.00;100626.75;5054398;28;20557;-71
2023/01/13 05:57:35;;;;;;;35.20;26.77;;;;;;;5.86;100.00;100699.97;5053723;28;20041;-71
2023/01/13 06:00:01;;;;;;;56.53;40.97;;;;;;;5.49;100.00;100640.13;5052503;28;20094;-71
2023/01/13 06:02:26;;;;;;;36.80;27.00;;;;;;;5.91;100.00;100710.06;5054009;28;20028;-70
2023/01/13 06:04:52;;;;;;;35.03;26.15;;;;;;;5.71;100.00;100653.66;5052581;28;20514;-71
2023/01/13 06:07:17;;;;;;;43.97;32.85;;;;;;;5.85;100.00;100695.78;5053954;28;20028;-71
2023/01/13 06:09:43;;;;;;;39.00;29.15;;;;;;;6.06;100.00;100705.09;5053640;28;20434;-71
2023/01/13 06:12:12;;;;;;;37.15;27.42;;;;;;;5.87;100.00;100721.00;5053445;28;20128;-70
2023/01/13 06:14:40;;;;;;;36.65;28.15;;;;;;;5.59;100.00;100657.00;5053397;28;20123;-70
2023/01/13 06:17:07;;;;;;;33.58;26.33;;;;;;;5.33;100.00;100628.31;5053189;28;20025;-70
2023/01/13 06:19:32;;;;;;;29.67;24.13;;;;;;;5.86;100.00;100687.34;5053776;28;20060;-70
2023/01/13 06:22:07;;;;;;;31.77;25.70;;;;;;;5.77;100.00;100668.81;5052506;28;20048;-71
2023/01/13 06:24:32;;;;;;;36.33;29.00;;;;;;;6.13;100.00;100716.88;5051800;28;20127;-71
2023/01/13 06:26:58;;;;;;;33.83;26.77;;;;;;;5.79;100.00;100722.63;5052006;28;20120;-69
2023/01/13 06:29:23;;;;;;;25.95;21.92;;;;;;;5.95;100.00;100726.91;5052439;28;20040;-71
2023/01/13 06:31:49;;;;;;;21.23;17.98;;;;;;;5.35;100.00;100625.84;5053563;28;20025;-70
2023/01/13 06:34:14;;;;;;;14.77;13.02;;;;;;;5.51;100.00;100675.44;5053296;28;20055;-70
2023/01/13 06:36:45;;;;;;;11.90;9.57;;;;;;;5.76;100.00;100717.59;5053275;28;20035;-70
2023/01/13 06:39:14;;;;;;;23.75;21.35;;;;;;;5.99;100.00;100723.56;5053420;28;20107;-71
2023/01/13 06:44:24;;;;;;;10.10;8.45;;;;;;;5.62;100.00;100661.22;5053252;28;20107;-70
2023/01/13 06:46:51;;;;;;;11.13;8.80;;;;;;;6.02;100.00;100728.63;5051960;28;20060;-71
2023/01/13 06:49:16;;;;;;;14.77;11.40;;;;;;;5.59;100.00;100629.25;5051794;28;20040;-71
2023/01/13 06:51:42;;;;;;;12.13;9.60;;;;;;;5.91;100.00;100735.31;5053301;28;20029;-71
2023/01/13 06:54:07;;;;;;;13.25;10.57;;;;;;;5.88;100.00;100669.72;5053148;28;20039;-70
2023/01/13 06:56:33;;;;;;;28.27;25.23;;;;;;;6.00;100.00;100700.03;5053469;28;20029;-70
2023/01/13 06:58:58;;;;;;;28.27;24.73;;;;;;;5.51;100.00;100600.66;5052775;28;20083;-71
2023/01/13 07:01:23;;;;;;;8.93;7.30;;;;;;;5.49;100.00;100626.69;5053150;28;20040;-70
2023/01/13 07:03:49;;;;;;;9.80;8.10;;;;;;;6.16;100.00;100690.78;5051493;28;20083;-70
2023/01/13 07:06:14;;;;;;;7.82;5.95;;;;;;;6.03;100.00;100675.63;5053210;28;20124;-71
2023/01/13 07:08:40;;;;;;;8.07;5.65;;;;;;;5.79;100.00;100669.66;5052012;28;20472;-71
2023/01/13 07:11:05;;;;;;;8.00;6.40;;;;;;;5.96;100.00;100652.91;5053298;28;20021;-71
2023/01/13 07:16:17;;;;;;;10.23;7.15;;;;;;;6.45;100.00;100732.06;5052792;28;20087;-71
2023/01/13 07:18:43;;;;;;;14.38;8.65;;;;;;;6.01;100.00;100661.31;5052447;28;20454;-70
2023/01/13 07:21:12;;;;;;;12.77;8.57;;;;;;;6.04;100.00;100681.53;5052102;28;20029;-70
2023/01/13 07:23:39;;;;;;;14.10;8.98;;;;;;;6.52;100.00;100751.41;5052270;28;20724;-70
2023/01/13 07:26:06;;;;;;;17.13;10.80;;;;;;;6.60;100.00;100745.53;5052339;28;20086;-70
2023/01/13 07:28:31;;;;;;;19.50;12.52;;;;;;;6.24;100.00;100686.59;5051150;28;20043;-70
2023/01/13 07:30:57;;;;;;;25.00;16.27;;;;;;;6.44;100.00;100743.84;5051307;28;20025;-69
2023/01/13 07:33:23;;;;;;;25.48;15.68;;;;;;;6.44;100.00;100758.16;5051435;28;20123;-72
2023/01/13 07:35:58;;;;;;;28.25;16.65;;;;;;;6.50;100.00;100785.91;5052075;28;20025;-71
2023/01/13 07:38:25;;;;;;;29.48;17.63;;;;;;;6.45;100.00;100757.31;5052437;28;20032;-70
2023/01/13 07:40:50;;;;;;;34.40;19.58;;;;;;;6.16;100.00;100726.94;5052274;28;20029;-71
2023/01/13 07:43:31;;;;;;;34.33;21.42;;;;;;;6.53;100.00;100768.25;5050655;28;20040;-71
2023/01/13 07:46:01;;;;;;;33.75;23.85;;;;;;;6.48;100.00;100785.94;5052102;28;20037;-71
2023/01/13 07:48:28;;;;;;;20.73;15.75;;;;;;;6.06;100.00;100730.31;5052013;28;20499;-71
2023/01/13 07:50:54;;;;;;;17.80;13.95;;;;;;;6.55;100.00;100794.38;5051951;28;20526;-71
2023/01/13 07:53:21;;;;;;;14.82;10.90;;;;;;;6.19;100.00;100769.88;5051612;28;20067;-70
2023/01/13 07:55:47;;;;;;;11.43;8.93;;;;;;;6.13;100.00;100795.97;5051927;28;20032;-71
2023/01/13 07:58:14;;;;;;;13.40;9.63;;;;;;;6.26;100.00;100806.91;5052238;28;20028;-70
2023/01/13 08:00:40;;;;;;;15.40;9.45;;;;;;;6.18;100.00;100795.13;5051455;28;20040;-70
2023/01/13 08:03:05;;;;;;;13.07;8.82;;;;;;;5.93;100.00;100759.72;5051186;28;20040;-70
2023/01/13 08:05:31;;;;;;;12.07;8.45;;;;;;;6.19;100.00;100797.66;5050724;28;20479;-70
2023/01/13 08:07:56;;;;;;;11.93;8.90;;;;;;;5.75;100.00;100709.16;5051822;28;20028;-71
2023/01/13 08:10:22;;;;;;;12.18;8.68;;;;;;;5.91;100.00;100753.81;5049935;28;20040;-71
2023/01/13 08:15:32;;;;;;;12.35;9.43;;;;;;;6.34;100.00;100781.72;5051289;28;20502;-70
2023/01/13 08:17:58;;;;;;;13.27;9.45;;;;;;;6.30;100.00;100745.50;5050048;28;20032;-71
2023/01/13 08:20:24;;;;;;;11.63;9.50;;;;;;;6.48;100.00;100801.06;5050326;28;20029;-71
2023/01/13 08:22:49;;;;;;;12.02;9.88;;;;;;;6.43;100.00;100797.72;5051317;28;20025;-71
2023/01/13 08:25:15;;;;;;;10.15;8.93;;;;;;;6.40;100.00;100746.38;5050004;28;20059;-71
2023/01/13 08:27:40;;;;;;;10.20;8.13;;;;;;;6.59;100.00;100809.53;5051385;28;20091;-71
2023/01/13 08:30:06;;;;;;;9.77;7.93;;;;;;;6.63;100.00;100812.91;5051091;28;20029;-71
2023/01/13 08:32:32;;;;;;;10.13;8.20;;;;;;;6.03;100.00;100689.91;5050992;28;20083;-71
2023/01/13 08:34:57;;;;;;;10.85;8.27;;;;;;;6.50;100.00;100761.50;5049752;28;20036;-71
2023/01/13 08:37:22;;;;;;;9.77;8.02;;;;;;;6.04;100.00;100726.94;5051607;28;20029;-71
2023/01/13 08:39:48;;;;;;;11.07;8.55;;;;;;;6.60;100.00;100778.38;5051021;28;20068;-71
2023/01/13 08:42:13;;;;;;;12.05;9.20;;;;;;;6.44;100.00;100750.59;5051073;28;20035;-70
2023/01/13 08:44:39;;;;;;;19.13;11.35;;;;;;;6.44;100.00;100771.59;5050970;28;20025;-70
2023/01/13 08:47:04;;;;;;;20.02;13.95;;;;;;;6.71;100.00;100811.22;5049947;28;20036;-71
2023/01/13 08:49:30;;;;;;;25.08;16.95;;;;;;;6.57;100.00;100806.16;5050546;28;20067;-70
2023/01/13 08:51:55;;;;;;;23.25;16.48;;;;;;;6.33;100.00;100700.06;5050212;28;20025;-70
2023/01/13 08:54:21;;;;;;;15.82;11.60;;;;;;;6.82;100.00;100812.91;5050522;28;20414;-70
2023/01/13 08:56:47;;;;;;;15.57;11.18;;;;;;;6.24;100.00;100692.47;5049541;28;20032;-71
2023/01/13 08:59:15;;;;;;;11.68;9.07;;;;;;;6.84;100.00;100747.22;5050315;28;20040;-70
2023/01/13 09:01:41;;;;;;;11.68;8.27;;;;;;;6.83;100.00;100743.84;5051144;28;20037;-70
2023/01/13 09:04:14;;;;;;;15.95;11.13;;;;;;;7.00;100.00;100754.78;5051361;28;20049;-71
2023/01/13 09:06:40;;;;;;;15.98;10.95;;;;;;;6.95;100.00;100801.97;5050555;28;20087;-71
2023/01/13 09:09:05;;;;;;;13.82;10.80;;;;;;;7.29;100.00;100819.66;5050317;28;20480;-71
2023/01/13 09:14:21;;;;;;;11.48;8.20;;;;;;;7.36;100.00;100821.31;5050755;28;20121;-71
2023/01/13 09:16:46;;;;;;;13.57;9.23;;;;;;;7.31;100.00;100792.69;5050879;28;20036;-70
2023/01/13 09:19:12;;;;;;;12.52;9.80;;;;;;;7.32;100.00;100807.00;5050884;28;20529;-71
2023/01/13 09:21:38;;;;;;;10.68;8.45;;;;;;;7.26;100.00;100800.25;5050517;28;20029;-71
2023/01/13 09:24:03;;;;;;;15.05;12.93;;;;;;;7.12;100.00;100763.19;5054713;28;20028;-71
2023/01/13 09:26:29;;;;;;;18.40;15.77;;;;;;;7.09;100.00;100768.25;5054246;28;20547;-70
2023/01/13 09:28:54;;;;;;;35.08;22.20;;;;;;;7.27;100.00;100784.22;5054510;28;20475;-70
2023/01/13 09:31:19;;;;;;;29.42;20.17;;;;;;;7.17;100.00;100746.34;5054497;28;20033;-71
2023/01/13 09:36:29;;;;;;;18.65;14.85;;;;;;;7.24;100.00;100801.09;5054552;28;20075;-70
2023/01/13 09:38:54;;;;;;;19.98;17.15;;;;;;;6.99;100.00;100742.97;5052984;28;20060;-71
2023/01/13 09:44:12;;;;;;;25.88;22.00;;;;;;;7.35;100.00;100757.25;5054268;28;20565;-70
2023/01/13 09:46:46;;;;;;;28.65;20.90;;;;;;;7.51;100.00;100790.91;5053264;28;20033;-71
2023/01/13 09:49:21;;;;;;;25.70;18.48;;;;;;;6.97;100.00;100699.16;5053433;28;20029;-71
2023/01/13 09:52:05;;;;;;;20.27;16.33;;;;;;;7.64;100.00;100793.44;5052566;28;20035;-71
2023/01/13 09:54:37;;;;;;;18.77;14.43;;;;;;;6.90;100.00;100705.09;5054504;28;20025;-71
2023/01/13 09:57:09;;;;;;;19.98;15.00;;;;;;;7.27;100.00;100728.59;5054184;28;20036;-71
2023/01/13 09:59:36;;;;;;;26.85;20.23;;;;;;;6.54;100.00;100664.69;5053967;28;20091;-71
2023/01/13 10:02:29;;;;;;;41.55;30.52;;;;;;;7.52;100.00;100783.34;5054098;28;20055;-71
2023/01/13 10:05:21;;;;;;;45.75;31.05;;;;;;;6.64;100.00;100665.53;5052429;28;20616;-71
2023/01/13 10:08:06;;;;;;;16.45;11.50;;;;;;;7.58;100.00;100785.03;5049132;28;20107;-73
2023/01/13 10:10:40;;;;;;;16.48;12.80;;;;;;;7.60;100.00;100783.31;5033766;28;20033;-72
2023/01/13 10:13:18;;;;;;;17.60;13.48;;;;;;;7.68;100.00;100771.50;5034186;28;20059;-72
2023/01/13 10:15:53;;;;;;;12.25;9.68;;;;;;;7.47;100.00;100771.53;4692013;28;9999913;-72
2023/01/13 10:18:57;;;;;;;12.90;8.90;;;;;;;7.33;100.00;100756.41;5049038;28;20037;-74
2023/01/13 10:21:47;;;;;;;17.48;13.90;;;;;;;7.65;100.00;100768.94;5048300;28;20041;-72
2023/01/13 10:24:32;;;;;;;12.63;11.27;;;;;;;7.08;100.00;100681.47;5050682;28;20033;-72
2023/01/13 10:27:21;;;;;;;12.55;10.80;;;;;;;7.44;100.00;100757.22;5049728;28;20457;-71
2023/01/13 10:29:47;;;;;;;13.90;10.50;;;;;;;7.46;100.00;100762.28;5030786;28;20423;-71
2023/01/13 10:32:12;;;;;;;11.77;9.55;;;;;;;7.70;100.00;100767.28;5030235;28;20034;-71
2023/01/13 10:34:48;;;;;;;8.93;7.38;;;;;;;7.25;100.00;100753.03;5029439;28;20055;-72
2023/01/13 10:37:25;;;;;;;12.07;9.55;;;;;;;7.32;100.00;100723.53;5041695;28;20559;-72
2023/01/13 10:39:54;;;;;;;11.98;9.25;;;;;;;7.33;100.00;100699.94;5045893;28;20384;-71
2023/01/13 10:42:22;;;;;;;15.07;12.20;;;;;;;7.47;100.00;100763.94;5050773;28;20036;-72
2023/01/13 10:44:56;;;;;;;12.27;9.13;;;;;;;7.70;100.00;100758.00;5049491;28;20415;-72
2023/01/13 10:47:21;;;;;;;17.50;14.85;;;;;;;7.67;100.00;100759.66;5051208;28;20102;-71
2023/01/13 10:50:07;;;;;;;16.58;12.85;;;;;;;7.43;100.00;100702.41;5051694;28;20037;-72
2023/01/13 10:52:39;;;;;;;22.35;17.08;;;;;;;8.16;100.00;100755.25;5049104;28;20029;-71
2023/01/13 10:55:32;;;;;;;19.45;15.02;;;;;;;7.67;100.00;100750.41;5037482;28;20037;-71
2023/01/13 10:58:16;;;;;;;13.10;10.10;;;;;;;7.45;100.00;100736.13;5032597;28;20059;-72
2023/01/13 11:00:42;;;;;;;11.25;8.60;;;;;;;7.25;100.00;100679.72;5032685;28;20033;-71
2023/01/13 11:03:22;;;;;;;11.93;10.60;;;;;;;6.96;100.00;100694.97;5032832;28;20125;-72
2023/01/13 11:05:54;;;;;;;9.27;7.38;;;;;;;6.99;100.00;100679.78;5033098;28;20033;-72
2023/01/13 11:08:23;;;;;;;10.05;8.57;;;;;;;7.69;100.00;100765.56;5032795;28;20033;-70
2023/01/13 11:10:57;;;;;;;8.00;7.15;;;;;;;7.69;100.00;100761.34;5032685;28;20071;-70
2023/01/13 11:14:31;;;;;;;17.13;13.80;;;;;;;7.16;100.00;100678.91;5031924;28;20079;-71
2023/01/13 11:16:26;;;;;;;22.10;19.75;;;;;;;7.19;100.00;100691.56;5031838;28;20033;-70
2023/01/13 11:19:12;;;;;;;13.90;11.88;;;;;;;7.65;100.00;100739.44;5031641;28;20041;-72
2023/01/13 11:21:55;;;;;;;12.00;8.95;;;;;;;7.57;100.00;100761.41;5032763;28;20033;-72
2023/01/13 11:24:34;;;;;;;18.23;12.07;;;;;;;7.11;100.00;100673.84;5033070;28;20411;-71
2023/01/13 11:27:07;;;;;;;18.15;11.82;;;;;;;7.54;100.00;100751.31;5032956;28;20034;-71
2023/01/13 11:29:52;;;;;;;17.77;12.07;;;;;;;7.51;100.00;100740.31;5032874;28;20109;-72
2023/01/13 11:32:21;;;;;;;22.75;16.63;;;;;;;7.61;100.00;100747.88;5032054;28;20026;-70
2023/01/13 11:34:52;;;;;;;8.63;6.60;;;;;;;7.07;100.00;100684.84;5031184;28;20037;-71
2023/01/13 11:37:31;;;;;;;16.40;10.25;;;;;;;7.15;100.00;100655.31;5032647;28;20099;-70
2023/01/13 11:40:04;;;;;;;13.77;9.85;;;;;;;7.06;100.00;100668.00;5031978;28;20506;-70
2023/01/13 11:43:03;;;;;;;12.40;8.43;;;;;;;7.50;100.00;100744.56;5031356;28;20128;-70
2023/01/13 11:45:37;;;;;;;15.52;8.48;;;;;;;7.22;100.00;100683.94;5030870;28;20492;-70
2023/01/13 11:48:03;;;;;;;8.07;5.85;;;;;;;7.40;100.00;100682.22;5031564;28;20029;-68
2023/01/13 11:50:43;;;;;;;9.00;6.05;;;;;;;7.90;100.00;100732.59;5031935;28;20041;-70
2023/01/13 11:53:14;;;;;;;12.55;8.27;;;;;;;7.92;100.00;100733.44;5031838;28;20120;-70
2023/01/13 11:55:40;;;;;;;10.35;8.07;;;;;;;7.73;100.00;100727.59;5031490;28;20068;-70
2023/01/13 11:58:39;;;;;;;23.17;13.25;;;;;;;8.00;100.00;100728.31;5032027;28;20056;-70
2023/01/13 12:01:36;;;;;;;17.67;11.65;;;;;;;7.97;100.00;100720.72;5031851;28;20036;-70
2023/01/13 12:04:24;;;;;;;15.55;11.80;;;;;;;8.24;100.00;100726.47;5030275;28;20092;-70
2023/01/13 12:06:57;;;;;;;7.10;6.10;;;;;;;7.98;100.00;100715.69;5031257;28;20072;-70
2023/01/13 12:09:44;;;;;;;5.68;4.60;;;;;;;7.81;100.00;100708.16;5030327;28;20033;-70
2023/01/13 12:12:42;;;;;;;11.10;9.35;;;;;;;8.06;100.00;100713.09;5030202;28;20069;-70